Taos Pueblo, New Mexico
Current Conditions -  °F | °C
As of 7:35 PM on Thursday 20 Nov 2014 (Local Time) from KSKX Reporting Station
Overcast Overcast  
Wind Chill: 22°   Ceiling: 10000
Heat Index: 30°   Visibility: 10mi
Dew Point: 19°   Wind: 9mph
Humidity: 64%   Direction: 90°E
Pressure: 30.09"   Gusts: NA
Location:  36.4227°N, 105.509°W
Report Text: KSKX 210235Z AUTO 09008KT 10SM SCT065 SCT075 OVC100 M01/M07 A3009 RMK AO1
Loading
Personal Weather Stations






























Interactive Weather Map New forecast layout! Learn more

10-Day Weather Forecast

Advertisements
Track Severe Weather on mobile